createdAt,value
2023-05-06T00:00:47.168Z,86
2023-05-06T00:20:47.083Z,86
2023-05-06T00:40:46.590Z,86
2023-05-06T01:00:50.797Z,87
2023-05-06T01:20:47.486Z,88
2023-05-06T01:40:47.538Z,87
2023-05-06T02:00:48.516Z,88
2023-05-06T02:20:49.050Z,88
2023-05-06T02:40:50.155Z,91
2023-05-06T03:00:50.765Z,91
2023-05-06T03:20:46.810Z,91
2023-05-06T03:40:47.513Z,91
2023-05-06T04:00:47.590Z,91
2023-05-06T04:21:09.538Z,91
2023-05-06T04:41:11.725Z,91
2023-05-06T05:01:13.558Z,91
2023-05-06T05:21:09.558Z,91
2023-05-06T05:41:10.397Z,91
2023-05-06T06:01:13.475Z,91
2023-05-06T06:21:14.080Z,92
2023-05-06T06:41:15.079Z,91
2023-05-06T07:01:12.533Z,91
2023-05-06T07:21:09.266Z,91
2023-05-06T07:41:12.701Z,91
2023-05-06T08:01:13.032Z,91
2023-05-06T08:21:20.808Z,90
2023-05-06T08:41:19.133Z,89
2023-05-06T09:01:11.661Z,90
2023-05-06T09:21:10.418Z,89
2023-05-06T09:41:08.245Z,86
2023-05-06T10:01:22.269Z,79
2023-05-06T10:21:08.008Z,80
2023-05-06T10:41:09.174Z,77
2023-05-06T11:01:19.309Z,71
2023-05-06T11:21:13.221Z,72
2023-05-06T11:41:19.504Z,69
2023-05-06T12:01:10.565Z,70
2023-05-06T12:21:15.179Z,65
2023-05-06T12:41:18.955Z,64
2023-05-06T13:01:16.889Z,62
2023-05-06T13:21:16.215Z,62
2023-05-06T13:41:08.941Z,62
2023-05-06T14:01:18.274Z,58
2023-05-06T14:21:13.692Z,57
2023-05-06T14:41:14.470Z,58
2023-05-06T15:01:08.559Z,59
2023-05-06T15:21:17.047Z,56
2023-05-06T15:41:09.256Z,57
2023-05-06T16:01:07.879Z,54
2023-05-06T16:21:18.510Z,53
2023-05-06T16:41:08.481Z,54
2023-05-06T17:01:08.564Z,55
2023-05-06T17:21:26.597Z,56
2023-05-06T17:41:15.611Z,58
2023-05-06T18:01:14.667Z,61
2023-05-06T18:21:15.535Z,64
2023-05-06T18:41:13.061Z,64
2023-05-06T19:00:48.849Z,62
2023-05-06T19:20:50.099Z,62
2023-05-06T19:40:47.442Z,62
2023-05-06T20:00:48.260Z,65
2023-05-06T20:20:50.299Z,67
2023-05-06T20:40:47.032Z,67
2023-05-06T21:00:47.454Z,71
2023-05-06T21:20:46.259Z,73
2023-05-06T21:40:47.192Z,72
2023-05-06T22:01:01.107Z,75
2023-05-06T22:20:46.997Z,77
2023-05-06T22:40:47.419Z,78
2023-05-06T23:00:46.789Z,78
2023-05-06T23:20:50.143Z,80
2023-05-06T23:40:51.066Z,80
